createdAt,value
2023-05-03T00:01:00.889Z,7.43
2023-05-03T00:03:32.957Z,7.42
2023-05-03T00:06:14.468Z,7.37
2023-05-03T00:08:45.898Z,7.37
2023-05-03T00:11:17.319Z,7.37
2023-05-03T00:13:48.760Z,7.34
2023-05-03T00:16:20.897Z,7.33
2023-05-03T00:18:52.262Z,7.32
2023-05-03T00:21:24.830Z,7.30
2023-05-03T00:23:56.203Z,7.32
2023-05-03T00:26:27.892Z,7.26
2023-05-03T00:28:59.225Z,7.21
2023-05-03T00:31:30.749Z,7.10
2023-05-03T00:34:02.217Z,7.04
2023-05-03T00:36:35.742Z,6.98
2023-05-03T00:39:08.430Z,6.93
2023-05-03T00:41:39.776Z,6.95
2023-05-03T00:44:11.101Z,6.99
2023-05-03T00:46:44.463Z,6.95
2023-05-03T00:49:16.120Z,6.98
2023-05-03T00:51:48.139Z,7.02
2023-05-03T00:54:20.032Z,7.01
2023-05-03T00:56:52.720Z,7.02
2023-05-03T00:59:24.304Z,7.07
2023-05-03T01:01:55.805Z,7.00
2023-05-03T01:04:27.708Z,6.99
2023-05-03T01:07:11.172Z,6.98
2023-05-03T01:09:51.724Z,6.95
2023-05-03T01:12:34.681Z,6.93
2023-05-03T01:15:06.596Z,6.93
2023-05-03T01:17:44.904Z,6.91
2023-05-03T01:20:17.685Z,6.87
2023-05-03T01:22:50.099Z,6.80
2023-05-03T01:25:21.648Z,6.76
2023-05-03T01:27:52.958Z,6.71
2023-05-03T01:30:26.709Z,6.69
2023-05-03T01:32:58.041Z,6.68
2023-05-03T01:35:29.412Z,6.70
2023-05-03T01:38:00.890Z,6.69
2023-05-03T01:40:36.116Z,6.68
2023-05-03T01:43:08.258Z,6.70
2023-05-03T01:45:40.515Z,6.67
2023-05-03T01:48:13.457Z,6.63
2023-05-03T01:50:45.624Z,6.67
2023-05-03T01:53:16.987Z,6.62
2023-05-03T01:55:48.303Z,6.62
2023-05-03T01:58:19.666Z,6.61
2023-05-03T02:00:51.128Z,6.60
2023-05-03T02:03:22.561Z,6.58
2023-05-03T02:05:53.891Z,6.57
2023-05-03T02:08:25.347Z,6.59
2023-05-03T02:10:56.657Z,6.56
2023-05-03T02:13:28.014Z,6.52
2023-05-03T02:15:59.333Z,6.50
2023-05-03T02:18:31.720Z,6.50
2023-05-03T02:21:04.276Z,6.51
2023-05-03T02:23:35.626Z,6.60
2023-05-03T02:26:07.972Z,6.66
2023-05-03T02:28:39.343Z,6.64
2023-05-03T02:31:10.699Z,6.59
2023-05-03T02:33:42.177Z,6.67
2023-05-03T02:36:13.571Z,6.75
2023-05-03T02:38:44.982Z,6.84
2023-05-03T02:41:16.293Z,6.85
2023-05-03T02:43:47.592Z,6.89
2023-05-03T02:46:18.932Z,6.92
2023-05-03T02:48:50.255Z,6.85
2023-05-03T02:51:21.673Z,6.82
2023-05-03T02:53:53.336Z,6.76
2023-05-03T02:56:26.881Z,6.85
2023-05-03T02:58:58.249Z,6.85
2023-05-03T03:01:29.944Z,6.68
2023-05-03T03:04:01.490Z,6.62
2023-05-03T03:06:32.984Z,6.64
2023-05-03T03:09:04.929Z,6.62
2023-05-03T03:11:36.362Z,6.61
2023-05-03T03:14:07.740Z,6.64
2023-05-03T03:16:39.253Z,6.69
2023-05-03T03:19:10.704Z,6.73
2023-05-03T03:21:42.147Z,6.76
2023-05-03T03:24:13.465Z,6.78
2023-05-03T03:26:44.993Z,6.82
2023-05-03T03:29:16.337Z,6.84
2023-05-03T03:31:47.777Z,6.81
2023-05-03T03:34:19.209Z,6.78
2023-05-03T03:36:50.723Z,6.85
2023-05-03T03:39:22.194Z,6.80
2023-05-03T03:41:53.568Z,6.73
2023-05-03T03:44:24.883Z,6.73
2023-05-03T03:46:56.231Z,6.67
2023-05-03T03:50:26.339Z,6.66
2023-05-03T03:52:57.832Z,6.66
2023-05-03T03:55:29.409Z,6.60
2023-05-03T03:58:01.016Z,6.59
2023-05-03T04:00:34.167Z,6.60
2023-05-03T04:03:07.888Z,6.57
2023-05-03T04:05:39.581Z,6.58
2023-05-03T04:08:11.112Z,6.61
2023-05-03T04:10:43.284Z,6.69
2023-05-03T04:13:14.769Z,6.74
2023-05-03T04:15:46.205Z,6.76
2023-05-03T04:18:17.700Z,6.84
2023-05-03T04:20:49.278Z,6.89
2023-05-03T04:23:20.929Z,6.88
2023-05-03T04:25:52.449Z,6.88
2023-05-03T04:28:25.026Z,6.96
2023-05-03T04:30:56.818Z,7.03
2023-05-03T04:33:29.796Z,7.10
2023-05-03T04:36:01.335Z,7.14
2023-05-03T04:38:33.512Z,7.19
2023-05-03T04:41:05.018Z,7.26
2023-05-03T04:43:36.600Z,7.27
2023-05-03T04:46:08.254Z,7.36
2023-05-03T04:48:40.578Z,7.43
2023-05-03T04:51:11.985Z,7.50
2023-05-03T04:53:43.494Z,7.41
2023-05-03T04:56:15.632Z,7.44
2023-05-03T04:58:47.219Z,7.14
2023-05-03T05:01:19.455Z,7.23
2023-05-03T05:03:57.115Z,7.11
2023-05-03T05:06:28.802Z,7.19
2023-05-03T05:09:00.700Z,7.24
2023-05-03T05:11:32.252Z,7.30
2023-05-03T05:14:03.840Z,7.37
2023-05-03T05:16:35.389Z,7.48
2023-05-03T05:19:06.940Z,7.36
2023-05-03T05:21:41.968Z,7.42
2023-05-03T05:24:13.611Z,7.48
2023-05-03T05:26:45.399Z,7.56
2023-05-03T05:29:16.931Z,7.65
2023-05-03T05:31:48.508Z,7.76
2023-05-03T05:34:19.961Z,7.53
2023-05-03T05:36:52.237Z,7.73
2023-05-03T05:39:24.005Z,7.84
2023-05-03T05:41:55.780Z,7.75
2023-05-03T05:44:27.266Z,7.89
2023-05-03T05:46:58.818Z,7.98
2023-05-03T05:49:30.476Z,8.07
2023-05-03T05:52:02.037Z,8.17
2023-05-03T05:54:33.527Z,8.29
2023-05-03T05:57:04.943Z,8.37
2023-05-03T05:59:36.712Z,8.46
2023-05-03T06:02:16.555Z,8.52
2023-05-03T06:04:48.354Z,8.59
2023-05-03T06:07:19.866Z,8.62
2023-05-03T06:09:51.443Z,8.65
2023-05-03T06:12:22.951Z,8.50
2023-05-03T06:15:02.415Z,8.37
2023-05-03T06:17:35.646Z,8.46
2023-05-03T06:20:12.122Z,8.47
2023-05-03T06:22:43.658Z,8.58
2023-05-03T06:25:17.003Z,8.47
2023-05-03T06:27:49.405Z,8.56
2023-05-03T06:30:20.895Z,8.44
2023-05-03T06:32:52.491Z,8.50
2023-05-03T06:35:24.044Z,8.51
2023-05-03T06:37:55.727Z,8.47
2023-05-03T06:40:27.585Z,8.49
2023-05-03T06:42:59.130Z,8.59
2023-05-03T06:45:30.699Z,8.65
2023-05-03T06:48:02.306Z,8.76
2023-05-03T06:50:33.865Z,8.85
2023-05-03T06:53:05.422Z,8.92
2023-05-03T06:55:36.940Z,9.03
2023-05-03T06:58:11.602Z,9.13
2023-05-03T07:00:43.188Z,9.23
2023-05-03T07:03:14.854Z,9.14
2023-05-03T07:05:47.108Z,9.30
2023-05-03T07:08:18.721Z,9.36
2023-05-03T07:10:50.334Z,9.40
2023-05-03T07:13:21.820Z,9.19
2023-05-03T07:15:53.368Z,9.36
2023-05-03T07:18:25.012Z,9.01
2023-05-03T07:20:56.847Z,9.13
2023-05-03T07:23:28.394Z,9.25
2023-05-03T07:25:59.950Z,9.31
2023-05-03T07:28:31.612Z,9.45
2023-05-03T07:31:04.696Z,9.61
2023-05-03T07:33:37.582Z,9.69
2023-05-03T07:36:09.589Z,9.48
2023-05-03T07:38:41.120Z,9.56
2023-05-03T07:41:12.616Z,9.62
2023-05-03T07:43:47.099Z,9.42
2023-05-03T07:46:18.823Z,9.53
2023-05-03T07:48:50.481Z,9.38
2023-05-03T07:51:21.989Z,9.58
2023-05-03T07:53:53.450Z,9.73
2023-05-03T07:56:27.522Z,9.88
2023-05-03T07:59:08.478Z,10.05
2023-05-03T08:01:41.764Z,10.20
2023-05-03T08:04:13.506Z,10.29
2023-05-03T08:06:45.424Z,10.25
2023-05-03T08:09:17.192Z,10.29
2023-05-03T08:11:48.686Z,10.34
2023-05-03T08:14:20.341Z,10.38
2023-05-03T08:16:51.868Z,10.40
2023-05-03T08:19:23.464Z,10.31
2023-05-03T08:21:55.667Z,10.42
2023-05-03T08:24:27.334Z,10.50
2023-05-03T08:26:59.050Z,10.63
2023-05-03T08:29:30.697Z,10.73
2023-05-03T08:32:02.464Z,10.95
2023-05-03T08:34:33.999Z,11.12
2023-05-03T08:37:05.590Z,11.19
2023-05-03T08:39:37.213Z,11.41
2023-05-03T08:42:09.221Z,11.51
2023-05-03T08:44:48.625Z,11.63
2023-05-03T08:47:21.974Z,11.80
2023-05-03T08:49:53.950Z,11.92
2023-05-03T08:52:25.445Z,11.95
2023-05-03T08:54:57.346Z,11.98
2023-05-03T08:57:29.799Z,12.09
2023-05-03T09:00:01.982Z,12.16
2023-05-03T09:02:35.048Z,12.22
2023-05-03T09:05:38.891Z,12.21
2023-05-03T09:08:13.486Z,12.24
2023-05-03T09:10:45.312Z,12.37
2023-05-03T09:13:16.963Z,12.43
2023-05-03T09:15:55.741Z,12.33
2023-05-03T09:18:27.363Z,12.47
2023-05-03T09:20:59.239Z,12.55
2023-05-03T09:23:31.252Z,12.64
2023-05-03T09:26:03.002Z,12.53
2023-05-03T09:28:42.131Z,12.78
2023-05-03T09:31:14.478Z,12.96
2023-05-03T09:33:46.193Z,12.97
2023-05-03T09:36:17.881Z,13.23
2023-05-03T09:38:51.718Z,13.43
2023-05-03T09:41:31.657Z,13.38
2023-05-03T09:44:03.286Z,13.50
2023-05-03T09:46:34.859Z,13.75
2023-05-03T09:49:06.783Z,13.83
2023-05-03T09:51:41.208Z,14.12
2023-05-03T09:54:14.996Z,13.75
2023-05-03T09:56:47.682Z,14.04
2023-05-03T09:59:19.255Z,14.12
2023-05-03T10:01:55.709Z,14.40
2023-05-03T10:04:28.609Z,14.64
2023-05-03T10:07:07.401Z,14.77
2023-05-03T10:09:58.802Z,14.98
2023-05-03T10:12:30.617Z,15.25
2023-05-03T10:15:07.367Z,15.29
2023-05-03T10:17:46.973Z,15.51
2023-05-03T10:20:33.415Z,15.77
2023-05-03T10:23:05.112Z,15.78
2023-05-03T10:25:38.873Z,15.71
2023-05-03T10:28:10.845Z,15.88
2023-05-03T10:30:42.356Z,15.53
2023-05-03T10:33:14.073Z,14.42
2023-05-03T10:35:53.692Z,14.34
2023-05-03T10:38:26.983Z,14.39
2023-05-03T10:41:01.397Z,14.52
2023-05-03T10:43:35.879Z,14.81
2023-05-03T10:46:29.214Z,15.17
2023-05-03T10:49:18.805Z,15.20
2023-05-03T10:51:50.449Z,15.45
2023-05-03T10:54:22.004Z,14.82
2023-05-03T10:56:56.059Z,14.96
2023-05-03T10:59:47.489Z,15.09
2023-05-03T11:02:27.180Z,15.53
2023-05-03T11:05:04.354Z,15.27
2023-05-03T11:07:36.077Z,15.58
2023-05-03T11:10:17.899Z,15.49
2023-05-03T11:12:49.452Z,15.38
2023-05-03T11:15:21.221Z,15.72
2023-05-03T11:17:53.007Z,15.57
2023-05-03T11:20:24.844Z,16.01
2023-05-03T11:22:56.422Z,16.34
2023-05-03T11:25:28.233Z,15.58
2023-05-03T11:28:01.925Z,15.28
2023-05-03T11:30:35.131Z,14.90
2023-05-03T11:33:06.914Z,15.37
2023-05-03T11:35:39.145Z,15.62
2023-05-03T11:38:10.546Z,14.53
2023-05-03T11:40:42.126Z,15.26
2023-05-03T11:43:13.729Z,15.52
2023-05-03T11:45:48.495Z,15.75
2023-05-03T11:48:20.173Z,15.82
2023-05-03T11:51:02.604Z,16.23
2023-05-03T11:53:33.959Z,16.29
2023-05-03T11:56:12.322Z,15.26
2023-05-03T11:59:10.064Z,16.30
2023-05-03T12:01:42.347Z,15.91
2023-05-03T12:04:14.415Z,16.30
2023-05-03T12:06:52.833Z,16.56
2023-05-03T12:09:27.306Z,16.36
2023-05-03T12:12:06.534Z,16.08
2023-05-03T12:15:03.756Z,16.07
2023-05-03T12:17:38.725Z,16.65
2023-05-03T12:23:09.854Z,16.88
2023-05-03T12:25:44.403Z,17.23
2023-05-03T12:28:20.923Z,17.13
2023-05-03T12:30:53.645Z,17.62
2023-05-03T12:33:28.183Z,18.00
2023-05-03T12:36:02.680Z,18.10
2023-05-03T12:38:37.522Z,18.49
2023-05-03T12:41:09.619Z,18.71
2023-05-03T12:46:33.240Z,18.60
2023-05-03T12:49:07.646Z,18.86
2023-05-03T12:51:42.600Z,19.09
2023-05-03T12:54:18.577Z,19.52
2023-05-03T12:56:54.784Z,18.44
2023-05-03T13:04:57.021Z,18.42
2023-05-03T13:07:30.484Z,18.26
2023-05-03T13:12:38.893Z,18.17
2023-05-03T13:15:10.493Z,18.44
2023-05-03T13:17:43.055Z,18.65
2023-05-03T13:20:16.199Z,18.86
2023-05-03T13:22:51.129Z,19.29
2023-05-03T13:25:25.265Z,19.83
2023-05-03T13:27:57.425Z,20.14
2023-05-03T13:30:29.501Z,20.29
2023-05-03T13:33:00.944Z,20.37
2023-05-03T13:35:32.509Z,20.18
2023-05-03T13:38:04.005Z,20.00
2023-05-03T13:40:35.512Z,20.05
2023-05-03T13:43:07.030Z,20.30
2023-05-03T13:45:38.633Z,20.61
2023-05-03T13:48:17.639Z,20.82
2023-05-03T13:50:50.804Z,20.58
2023-05-03T13:53:22.384Z,20.86
2023-05-03T13:55:53.919Z,20.36
2023-05-03T13:58:25.591Z,20.46
2023-05-03T14:00:57.200Z,20.05
2023-05-03T14:03:28.998Z,20.07
2023-05-03T14:06:00.793Z,19.77
2023-05-03T14:08:33.786Z,20.13
2023-05-03T14:11:06.324Z,20.59
2023-05-03T14:13:51.509Z,20.82
2023-05-03T14:19:01.634Z,19.76
2023-05-03T14:21:33.203Z,20.02
2023-05-03T14:24:05.352Z,19.94
2023-05-03T14:26:37.483Z,19.97
2023-05-03T14:29:09.123Z,19.80
2023-05-03T14:31:40.904Z,20.37
2023-05-03T14:34:12.888Z,20.67
2023-05-03T14:36:44.419Z,21.11
2023-05-03T14:39:16.571Z,21.74
2023-05-03T14:41:50.135Z,22.32
2023-05-03T14:44:21.874Z,22.72
2023-05-03T14:46:53.623Z,24.08
2023-05-03T14:49:25.598Z,25.54
2023-05-03T14:51:57.668Z,27.59
2023-05-03T14:54:29.141Z,29.32
2023-05-03T14:57:01.323Z,31.51
2023-05-03T14:59:33.676Z,33.85
2023-05-03T15:02:05.262Z,33.85
2023-05-03T15:04:39.712Z,36.84
2023-05-03T15:07:11.554Z,37.35
2023-05-03T15:09:44.779Z,38.43
2023-05-03T15:12:16.506Z,39.41
2023-05-03T15:14:48.326Z,39.49
2023-05-03T15:17:20.104Z,39.16
2023-05-03T15:19:52.755Z,40.23
2023-05-03T15:22:24.373Z,39.98
2023-05-03T15:24:55.880Z,39.27
2023-05-03T15:27:27.405Z,39.18
2023-05-03T15:29:58.998Z,39.75
2023-05-03T15:32:31.038Z,39.01
2023-05-03T15:35:02.550Z,36.03
2023-05-03T15:37:37.107Z,33.56
2023-05-03T15:40:10.520Z,30.76
2023-05-03T15:42:42.008Z,27.63
2023-05-03T15:45:13.934Z,25.87
2023-05-03T15:47:45.967Z,24.85
2023-05-03T15:50:17.500Z,23.54
2023-05-03T15:52:48.918Z,22.90
2023-05-03T15:55:20.427Z,22.35
2023-05-03T15:57:53.157Z,21.29
2023-05-03T16:00:25.763Z,20.97
2023-05-03T16:02:58.016Z,21.26
2023-05-03T16:05:31.077Z,24.31
2023-05-03T16:08:02.690Z,24.94
2023-05-03T16:10:35.360Z,23.93
2023-05-03T16:13:08.376Z,23.08
2023-05-03T16:15:40.302Z,22.36
2023-05-03T16:18:12.163Z,21.34
2023-05-03T16:20:43.751Z,20.87
2023-05-03T16:23:15.871Z,20.25
2023-05-03T16:25:47.382Z,19.96
2023-05-03T16:28:18.901Z,19.62
2023-05-03T16:30:50.428Z,19.35
2023-05-03T16:33:22.199Z,19.12
2023-05-03T16:35:53.796Z,18.77
2023-05-03T16:38:30.327Z,18.43
2023-05-03T16:41:02.130Z,18.43
2023-05-03T16:43:33.592Z,18.39
2023-05-03T16:46:05.601Z,18.28
2023-05-03T16:48:37.280Z,18.23
2023-05-03T16:51:08.852Z,18.25
2023-05-03T16:53:41.416Z,18.10
2023-05-03T16:56:12.919Z,18.10
2023-05-03T16:58:44.404Z,17.98
2023-05-03T17:01:16.304Z,17.98
2023-05-03T17:03:47.950Z,17.87
2023-05-03T17:06:19.647Z,17.72
2023-05-03T17:08:51.216Z,17.71
2023-05-03T17:11:22.742Z,17.64
2023-05-03T17:13:54.196Z,17.60
2023-05-03T17:16:26.351Z,17.49
2023-05-03T17:18:57.971Z,17.42
2023-05-03T17:21:29.575Z,17.37
2023-05-03T17:24:01.079Z,17.29
2023-05-03T17:26:32.674Z,17.17
2023-05-03T17:29:06.224Z,17.11
2023-05-03T17:31:37.823Z,16.98
2023-05-03T17:34:09.335Z,16.91
2023-05-03T17:36:41.374Z,16.83
2023-05-03T17:39:13.181Z,16.75
2023-05-03T17:41:44.795Z,16.61
2023-05-03T17:44:16.650Z,16.46
2023-05-03T17:46:48.589Z,16.34
2023-05-03T17:49:20.200Z,16.30
2023-05-03T17:51:51.951Z,16.20
2023-05-03T17:54:24.412Z,16.15
2023-05-03T17:56:56.429Z,16.13
2023-05-03T17:59:27.991Z,16.03
2023-05-03T18:02:00.701Z,15.97
2023-05-03T18:04:32.785Z,15.88
2023-05-03T18:07:04.325Z,15.77
2023-05-03T18:09:35.898Z,15.66
2023-05-03T18:12:07.421Z,15.48
2023-05-03T18:14:38.940Z,15.42
2023-05-03T18:17:10.493Z,15.32
2023-05-03T18:19:45.166Z,15.21
2023-05-03T18:22:16.659Z,15.10
2023-05-03T18:24:54.529Z,15.01
2023-05-03T18:27:25.976Z,14.95
2023-05-03T18:29:58.491Z,14.86
2023-05-03T18:32:29.976Z,14.77
2023-05-03T18:35:02.485Z,14.70
2023-05-03T18:37:35.081Z,14.60
2023-05-03T18:40:08.894Z,14.57
2023-05-03T18:42:40.365Z,14.49
2023-05-03T18:45:12.127Z,14.40
2023-05-03T18:47:43.684Z,14.34
2023-05-03T18:50:17.357Z,14.26
2023-05-03T18:52:50.687Z,14.22
2023-05-03T18:55:22.283Z,14.16
2023-05-03T18:57:53.787Z,14.05
2023-05-03T19:00:25.300Z,14.02
2023-05-03T19:02:56.872Z,13.97
2023-05-03T19:05:28.455Z,13.91
2023-05-03T19:08:00.422Z,13.84
2023-05-03T19:10:32.964Z,13.78
2023-05-03T19:13:04.951Z,13.74
2023-05-03T19:15:36.659Z,13.69
2023-05-03T19:18:08.288Z,13.54
2023-05-03T19:20:39.886Z,13.59
2023-05-03T19:23:12.902Z,13.56
2023-05-03T19:25:44.434Z,13.51
2023-05-03T19:28:16.006Z,13.51
2023-05-03T19:30:51.424Z,13.48
2023-05-03T19:33:23.222Z,13.46
2023-05-03T19:35:56.822Z,13.41
2023-05-03T19:38:29.277Z,13.37
2023-05-03T19:41:05.886Z,13.38
2023-05-03T19:43:39.608Z,13.30
2023-05-03T19:46:11.310Z,13.26
2023-05-03T19:48:43.060Z,13.26
2023-05-03T19:51:15.105Z,13.20
2023-05-03T19:53:48.786Z,13.17
2023-05-03T19:56:22.136Z,13.11
2023-05-03T19:58:54.435Z,13.05
2023-05-03T20:01:26.396Z,13.02
2023-05-03T20:03:58.129Z,12.99
2023-05-03T20:06:29.897Z,12.95
2023-05-03T20:09:01.782Z,12.90
2023-05-03T20:11:33.299Z,12.87
2023-05-03T20:14:04.880Z,12.83
2023-05-03T20:16:38.966Z,12.80
2023-05-03T20:19:10.998Z,12.76
2023-05-03T20:21:42.559Z,12.72
2023-05-03T20:24:15.379Z,12.69
2023-05-03T20:26:46.923Z,12.63
2023-05-03T20:29:18.642Z,12.59
2023-05-03T20:31:57.285Z,12.57
2023-05-03T20:34:30.373Z,12.52
2023-05-03T20:37:02.001Z,12.51
2023-05-03T20:39:35.200Z,12.47
2023-05-03T20:42:07.699Z,12.44
2023-05-03T20:44:39.234Z,12.39
2023-05-03T20:47:11.058Z,12.37
2023-05-03T20:49:42.627Z,12.36
2023-05-03T20:52:14.174Z,12.34
2023-05-03T20:54:46.526Z,12.31
2023-05-03T20:57:18.105Z,12.26
2023-05-03T20:59:49.751Z,12.21
2023-05-03T21:02:21.973Z,12.15
2023-05-03T21:04:53.632Z,12.12
2023-05-03T21:07:26.853Z,12.07
2023-05-03T21:09:59.359Z,12.05
2023-05-03T21:12:30.868Z,12.04
2023-05-03T21:15:02.382Z,12.00
2023-05-03T21:17:33.940Z,11.95
2023-05-03T21:20:06.372Z,11.93
2023-05-03T21:22:37.997Z,11.90
2023-05-03T21:25:11.390Z,11.87
2023-05-03T21:27:42.908Z,11.83
2023-05-03T21:30:14.472Z,11.80
2023-05-03T21:32:49.526Z,11.74
2023-05-03T21:35:21.119Z,11.73
2023-05-03T21:37:52.718Z,11.73
2023-05-03T21:40:24.218Z,11.70
2023-05-03T21:42:55.698Z,11.65
2023-05-03T21:45:27.184Z,11.54
2023-05-03T21:48:00.709Z,11.55
2023-05-03T21:50:32.257Z,11.48
2023-05-03T21:53:03.796Z,11.44
2023-05-03T21:55:36.099Z,11.44
2023-05-03T21:58:07.422Z,11.45
2023-05-03T22:00:40.448Z,11.47
2023-05-03T22:03:12.371Z,11.47
2023-05-03T22:05:48.793Z,11.42
2023-05-03T22:08:20.605Z,11.41
2023-05-03T22:10:52.324Z,11.38
2023-05-03T22:13:23.890Z,11.38
2023-05-03T22:15:55.577Z,11.39
2023-05-03T22:18:28.065Z,11.36
2023-05-03T22:20:59.632Z,11.34
2023-05-03T22:23:31.270Z,11.30
2023-05-03T22:26:02.759Z,11.28
2023-05-03T22:28:34.227Z,11.28
2023-05-03T22:31:06.200Z,11.22
2023-05-03T22:33:37.810Z,11.20
2023-05-03T22:36:09.328Z,11.17
2023-05-03T22:38:42.980Z,11.13
2023-05-03T22:41:14.792Z,11.07
2023-05-03T22:43:46.281Z,11.04
2023-05-03T22:46:20.544Z,10.98
2023-05-03T22:48:52.646Z,10.93
2023-05-03T22:51:24.850Z,10.91
2023-05-03T22:53:56.358Z,10.88
2023-05-03T22:56:27.880Z,10.86
2023-05-03T22:58:59.340Z,10.84
2023-05-03T23:01:30.881Z,10.80
2023-05-03T23:04:02.777Z,10.74
2023-05-03T23:06:34.367Z,10.67
2023-05-03T23:09:06.368Z,10.60
2023-05-03T23:11:37.914Z,10.57
2023-05-03T23:14:09.434Z,10.58
2023-05-03T23:16:41.639Z,10.48
2023-05-03T23:19:13.266Z,10.43
2023-05-03T23:21:44.731Z,10.41
2023-05-03T23:24:16.213Z,10.38
2023-05-03T23:26:47.673Z,10.31
2023-05-03T23:29:19.547Z,10.27
2023-05-03T23:31:51.401Z,10.24
2023-05-03T23:34:23.428Z,10.22
2023-05-03T23:36:54.906Z,10.19
2023-05-03T23:39:26.388Z,10.18
2023-05-03T23:41:58.808Z,10.12
2023-05-03T23:44:42.952Z,10.11
2023-05-03T23:47:21.790Z,10.04
2023-05-03T23:49:53.334Z,9.99
2023-05-03T23:52:24.826Z,9.92
2023-05-03T23:54:56.318Z,9.87
2023-05-03T23:57:27.753Z,9.84
2023-05-03T23:59:59.220Z,9.84
